Time;durP1;ratioP1;P1;durP2;ratioP2;P2;SDS_P1;SDS_P2;PMS_P1;PMS_P2;Temp;Humidity;BMP_temperature;BMP_pressure;BME280_temperature;BME280_humidity;BME280_pressure;Samples;Min_cycle;Max_cycle;Signal;HPM_P1;HPM_P2
2021/08/26 00:07:54;;;;;;;0.55;0.38;;;17.00;89.10;;;;;;5034165;28;20500;-76
2021/08/26 00:10:22;;;;;;;0.20;0.20;;;17.00;89.10;;;;;;5033483;28;20091;-77
2021/08/26 00:12:49;;;;;;;0.13;0.13;;;17.00;89.00;;;;;;5033240;28;20032;-77
2021/08/26 00:15:14;;;;;;;0.20;0.20;;;17.00;89.00;;;;;;5033449;28;20029;-76
2021/08/26 00:17:40;;;;;;;0.20;0.20;;;17.00;89.10;;;;;;5033600;28;20021;-76
2021/08/26 00:20:06;;;;;;;0.30;0.30;;;17.00;89.20;;;;;;5033272;28;20051;-77
2021/08/26 00:22:32;;;;;;;0.20;0.20;;;17.00;89.20;;;;;;5015888;28;20500;-77
2021/08/26 00:24:58;;;;;;;0.35;0.35;;;17.00;89.30;;;;;;5033530;28;20053;-77
2021/08/26 00:27:24;;;;;;;0.32;0.32;;;16.90;89.30;;;;;;5032864;28;20079;-77
2021/08/26 00:29:50;;;;;;;0.43;0.43;;;16.90;89.40;;;;;;5033367;28;20079;-79
2021/08/26 00:32:15;;;;;;;1.08;0.50;;;16.90;89.60;;;;;;5033212;28;20022;-79
2021/08/26 00:34:41;;;;;;;0.28;0.28;;;17.00;89.60;;;;;;5015588;28;20028;-78
2021/08/26 00:37:06;;;;;;;0.20;0.10;;;16.90;89.50;;;;;;5033295;28;20391;-77
2021/08/26 00:39:32;;;;;;;0.20;0.20;;;16.90;89.70;;;;;;5033191;28;20088;-77
2021/08/26 00:41:57;;;;;;;0.20;0.20;;;16.90;89.70;;;;;;5015132;28;20056;-78
2021/08/26 00:44:23;;;;;;;0.32;0.32;;;16.90;89.60;;;;;;5033191;28;20036;-77
2021/08/26 00:46:51;;;;;;;0.30;0.30;;;17.00;89.70;;;;;;5015539;28;20028;-77
2021/08/26 00:49:17;;;;;;;0.45;0.28;;;17.00;89.50;;;;;;5032982;28;20042;-78
2021/08/26 00:51:44;;;;;;;0.25;0.20;;;17.00;89.40;;;;;;5033168;28;20021;-76
2021/08/26 00:54:10;;;;;;;0.40;0.30;;;17.00;89.40;;;;;;5033161;28;20100;-78
2021/08/26 00:56:37;;;;;;;0.28;0.20;;;17.00;89.40;;;;;;5032828;28;20109;-78
2021/08/26 00:59:06;;;;;;;0.28;0.28;;;17.00;89.60;;;;;;5015208;28;20398;-76
2021/08/26 01:01:52;;;;;;;;;;;17.00;89.60;;;;;;5033482;28;20113;-79
2021/08/26 01:04:30;;;;;;;0.25;0.25;;;16.90;89.60;;;;;;5033071;28;19937;-75
2021/08/26 01:07:09;;;;;;;0.80;0.40;;;16.90;89.70;;;;;;5033107;28;20037;-77
2021/08/26 01:09:50;;;;;;;0.30;0.30;;;16.90;89.60;;;;;;5036494;28;20017;-77
2021/08/26 01:12:20;;;;;;;0.28;0.22;;;16.90;89.40;;;;;;5037016;28;20025;-76
2021/08/26 01:14:46;;;;;;;0.35;0.35;;;17.00;89.30;;;;;;5036909;28;20043;-77
2021/08/26 01:17:25;;;;;;;0.20;0.20;;;16.90;89.30;;;;;;5036871;28;20022;-76
2021/08/26 01:19:51;;;;;;;1.20;0.30;;;17.00;89.30;;;;;;5036645;28;20036;-77
2021/08/26 01:22:18;;;;;;;0.82;0.40;;;17.00;89.30;;;;;;5036706;28;20025;-76
2021/08/26 01:24:48;;;;;;;0.75;0.20;;;17.00;89.20;;;;;;5036068;28;20382;-76
2021/08/26 01:27:16;;;;;;;0.52;0.30;;;17.00;89.10;;;;;;5036756;28;20079;-77
2021/08/26 01:29:41;;;;;;;0.70;0.30;;;16.90;89.00;;;;;;5036838;28;20047;-77
2021/08/26 01:32:08;;;;;;;0.35;0.22;;;16.90;89.10;;;;;;5036577;28;20474;-77
2021/08/26 01:34:33;;;;;;;0.40;0.40;;;16.80;89.10;;;;;;5036362;28;20025;-76
2021/08/26 01:36:59;;;;;;;0.60;0.30;;;16.70;89.40;;;;;;5018769;28;20374;-78
2021/08/26 01:39:24;;;;;;;0.50;0.50;;;16.70;89.50;;;;;;5035802;28;20117;-77
2021/08/26 01:41:52;;;;;;;0.50;0.40;;;16.70;89.30;;;;;;5036462;28;20025;-77
2021/08/26 01:44:22;;;;;;;0.73;0.50;;;16.70;89.30;;;;;;5036276;28;20025;-78
2021/08/26 01:46:48;;;;;;;0.88;0.30;;;16.70;89.20;;;;;;5036227;28;20466;-77
2021/08/26 01:49:14;;;;;;;0.73;0.50;;;16.60;89.20;;;;;;5036011;28;20050;-77
2021/08/26 01:51:40;;;;;;;0.25;0.25;;;16.60;89.20;;;;;;5018572;28;20171;-77
2021/08/26 01:54:06;;;;;;;0.50;0.38;;;16.60;89.30;;;;;;5035800;28;20036;-76
2021/08/26 01:56:32;;;;;;;0.20;0.20;;;16.60;89.30;;;;;;5036021;28;20017;-77
2021/08/26 01:58:57;;;;;;;0.85;0.40;;;16.50;89.30;;;;;;5035992;28;20390;-77
2021/08/26 02:01:23;;;;;;;0.50;0.50;;;16.50;89.40;;;;;;5036222;28;20018;-80
2021/08/26 02:03:48;;;;;;;0.32;0.32;;;16.50;89.30;;;;;;5018124;28;20520;-77
2021/08/26 02:06:14;;;;;;;0.28;0.28;;;16.50;89.20;;;;;;5035825;28;20036;-77
2021/08/26 02:08:39;;;;;;;0.43;0.43;;;16.50;89.10;;;;;;5035366;28;20026;-77
2021/08/26 02:11:05;;;;;;;0.50;0.50;;;16.50;89.10;;;;;;5035694;28;20024;-80
2021/08/26 02:13:30;;;;;;;0.40;0.35;;;16.50;88.90;;;;;;5035759;28;20065;-79
2021/08/26 02:15:56;;;;;;;0.40;0.40;;;16.50;89.00;;;;;;5035745;28;20032;-78
2021/08/26 02:18:21;;;;;;;0.45;0.45;;;16.50;89.10;;;;;;5035570;28;20075;-78
2021/08/26 02:20:47;;;;;;;1.10;0.73;;;16.40;89.00;;;;;;5034908;28;20030;-78
2021/08/26 02:23:12;;;;;;;1.10;0.80;;;16.40;89.10;;;;;;5035248;28;20056;-77
2021/08/26 02:25:38;;;;;;;1.08;0.98;;;16.40;89.20;;;;;;5035545;28;20394;-78
2021/08/26 02:28:03;;;;;;;1.50;0.82;;;16.30;89.20;;;;;;5035626;28;20025;-78
2021/08/26 02:30:29;;;;;;;0.47;0.30;;;16.30;89.20;;;;;;5035482;28;20033;-77
2021/08/26 02:32:54;;;;;;;0.90;0.65;;;16.30;89.30;;;;;;5035410;28;20167;-77
2021/08/26 02:35:20;;;;;;;0.73;0.52;;;16.30;89.20;;;;;;5035357;28;20549;-77
2021/08/26 02:37:45;;;;;;;0.73;0.43;;;16.40;88.90;;;;;;5035008;28;20033;-77
2021/08/26 02:40:11;;;;;;;1.02;0.80;;;16.40;88.80;;;;;;5035521;28;20039;-77
2021/08/26 02:42:37;;;;;;;0.32;0.30;;;16.40;88.70;;;;;;5035295;28;20021;-77
2021/08/26 02:45:04;;;;;;;0.55;0.50;;;16.40;88.60;;;;;;5035271;28;20029;-77
2021/08/26 02:47:30;;;;;;;0.60;0.60;;;16.40;88.60;;;;;;5035212;28;20105;-77
2021/08/26 02:49:55;;;;;;;0.50;0.50;;;16.40;88.50;;;;;;5035100;28;20073;-77
2021/08/26 02:52:21;;;;;;;1.77;1.23;;;16.40;88.60;;;;;;5034682;28;20044;-76
2021/08/26 02:54:46;;;;;;;1.65;0.60;;;16.40;88.60;;;;;;5035057;28;20446;-77
2021/08/26 02:57:12;;;;;;;1.38;0.63;;;16.30;88.70;;;;;;5035066;28;20079;-76
2021/08/26 02:59:37;;;;;;;0.70;0.63;;;16.30;88.90;;;;;;5034965;28;20505;-77
2021/08/26 03:02:03;;;;;;;1.17;0.70;;;16.20;88.90;;;;;;5034948;28;20083;-77
2021/08/26 03:04:29;;;;;;;0.75;0.68;;;16.20;89.00;;;;;;5034890;28;20378;-76
2021/08/26 03:06:54;;;;;;;0.40;0.40;;;16.10;89.20;;;;;;5034354;28;20056;-76
2021/08/26 03:09:20;;;;;;;0.65;0.50;;;16.10;89.20;;;;;;5034927;28;20083;-77
2021/08/26 03:11:45;;;;;;;0.93;0.60;;;16.20;89.10;;;;;;5034874;28;20437;-76
2021/08/26 03:14:11;;;;;;;0.57;0.50;;;16.20;89.00;;;;;;5034702;28;20488;-76
2021/08/26 03:16:36;;;;;;;0.75;0.60;;;16.20;89.00;;;;;;5034632;28;20029;-76
2021/08/26 03:19:02;;;;;;;1.15;0.60;;;16.20;88.90;;;;;;5034514;28;20151;-77
2021/08/26 03:21:27;;;;;;;0.60;0.60;;;16.20;88.90;;;;;;5034209;28;20030;-77
2021/08/26 03:23:53;;;;;;;0.68;0.63;;;16.20;88.90;;;;;;5034590;28;20052;-77
2021/08/26 03:26:18;;;;;;;0.95;0.73;;;16.10;88.80;;;;;;5034395;28;20022;-77
2021/08/26 03:28:44;;;;;;;0.93;0.63;;;16.10;89.00;;;;;;5034388;28;20044;-75
2021/08/26 03:31:09;;;;;;;1.52;0.60;;;16.00;89.10;;;;;;5033250;28;20025;-76
2021/08/26 03:33:35;;;;;;;0.85;0.60;;;16.00;89.20;;;;;;5034375;28;20057;-74
2021/08/26 03:36:01;;;;;;;1.70;0.98;;;16.00;89.20;;;;;;5033780;28;20026;-76
2021/08/26 03:38:26;;;;;;;0.70;0.55;;;15.90;89.30;;;;;;5034166;28;20095;-76
2021/08/26 03:40:52;;;;;;;0.50;0.40;;;15.90;89.50;;;;;;5034108;28;20087;-76
2021/08/26 03:43:17;;;;;;;0.30;0.30;;;15.90;89.50;;;;;;5034156;28;20462;-77
2021/08/26 03:45:43;;;;;;;0.80;0.68;;;15.90;89.50;;;;;;5034084;28;20386;-76
2021/08/26 03:48:09;;;;;;;0.60;0.60;;;15.90;89.40;;;;;;5033878;28;20449;-76
2021/08/26 03:50:34;;;;;;;0.85;0.70;;;15.90;89.50;;;;;;5033641;28;20375;-76
2021/08/26 03:53:00;;;;;;;2.08;0.70;;;15.90;89.40;;;;;;5033968;28;20032;-76
2021/08/26 03:55:25;;;;;;;0.52;0.40;;;15.90;89.20;;;;;;5033915;28;20057;-75
2021/08/26 03:57:51;;;;;;;0.38;0.38;;;15.90;89.10;;;;;;5034101;28;20021;-76
2021/08/26 04:00:16;;;;;;;0.73;0.73;;;15.90;89.20;;;;;;5033731;28;20037;-76
2021/08/26 04:02:42;;;;;;;1.08;0.50;;;15.90;89.20;;;;;;5033839;28;20091;-76
2021/08/26 04:05:08;;;;;;;0.30;0.30;;;15.90;89.20;;;;;;5015714;28;20029;-77
2021/08/26 04:07:34;;;;;;;2.33;0.88;;;15.90;89.20;;;;;;5033615;28;20026;-76
2021/08/26 04:09:59;;;;;;;0.38;0.38;;;15.90;89.20;;;;;;5033757;28;20390;-77
2021/08/26 04:12:27;;;;;;;0.50;0.43;;;15.90;89.20;;;;;;5033756;28;20096;-76
2021/08/26 04:14:53;;;;;;;0.70;0.47;;;15.90;89.20;;;;;;5033571;28;20026;-76
2021/08/26 04:17:19;;;;;;;1.70;0.65;;;15.90;89.10;;;;;;5015289;28;20029;-76
2021/08/26 04:19:44;;;;;;;1.38;0.68;;;15.90;89.10;;;;;;5033531;28;20033;-77
2021/08/26 04:22:10;;;;;;;0.68;0.68;;;15.80;89.20;;;;;;5033474;28;20470;-76
2021/08/26 04:24:35;;;;;;;0.70;0.68;;;15.80;89.20;;;;;;5033456;28;20033;-76
2021/08/26 04:27:01;;;;;;;1.52;1.00;;;15.80;89.20;;;;;;5033458;28;20016;-76
2021/08/26 04:29:26;;;;;;;0.73;0.50;;;15.80;89.20;;;;;;5033401;28;20424;-77
2021/08/26 04:31:52;;;;;;;0.45;0.45;;;15.80;89.00;;;;;;5032975;28;20108;-77
2021/08/26 04:34:17;;;;;;;0.60;0.60;;;15.80;89.10;;;;;;5033223;28;20101;-76
2021/08/26 04:36:43;;;;;;;0.73;0.57;;;15.70;89.20;;;;;;5033316;28;20061;-76
2021/08/26 04:39:08;;;;;;;0.43;0.43;;;15.70;89.30;;;;;;5033384;28;20075;-76
2021/08/26 04:41:35;;;;;;;0.85;0.55;;;15.70;89.40;;;;;;5033480;28;20032;-76
2021/08/26 04:44:00;;;;;;;0.60;0.40;;;15.60;89.50;;;;;;5032817;28;20021;-76
2021/08/26 04:46:27;;;;;;;1.25;0.60;;;15.60;89.50;;;;;;5032807;28;20395;-77
2021/08/26 04:48:52;;;;;;;1.02;0.63;;;15.60;89.50;;;;;;5012162;28;20531;-76
2021/08/26 04:51:18;;;;;;;0.98;0.68;;;15.60;89.60;;;;;;5013392;28;20026;-77
2021/08/26 04:53:43;;;;;;;1.75;0.68;;;15.60;89.60;;;;;;5013542;28;20141;-76
2021/08/26 04:56:09;;;;;;;0.95;0.73;;;15.60;89.60;;;;;;5013378;28;20018;-76
2021/08/26 04:58:34;;;;;;;0.50;0.50;;;15.60;90.10;;;;;;5013231;28;20049;-77
2021/08/26 05:01:00;;;;;;;0.55;0.47;;;15.60;89.50;;;;;;5013188;28;20044;-77
2021/08/26 05:03:25;;;;;;;0.60;0.50;;;15.60;89.50;;;;;;5013399;28;20496;-77
2021/08/26 05:05:51;;;;;;;0.80;0.30;;;15.60;89.40;;;;;;5013372;28;20036;-77
2021/08/26 05:08:16;;;;;;;0.65;0.30;;;15.70;89.30;;;;;;5013368;28;20018;-77
2021/08/26 05:10:42;;;;;;;0.80;0.50;;;15.70;89.20;;;;;;5012077;28;20026;-76
2021/08/26 05:13:08;;;;;;;0.30;0.30;;;15.70;89.00;;;;;;5013287;28;20021;-78
2021/08/26 05:15:36;;;;;;;1.65;0.63;;;15.70;89.00;;;;;;5012877;28;20046;-77
2021/08/26 05:18:02;;;;;;;1.02;0.45;;;15.70;89.10;;;;;;5013119;28;20053;-77
2021/08/26 05:20:27;;;;;;;0.10;0.10;;;15.70;89.10;;;;;;5013094;28;20040;-77
2021/08/26 05:22:53;;;;;;;0.30;0.30;;;15.80;89.10;;;;;;5011962;28;20046;-77
2021/08/26 05:25:18;;;;;;;0.50;0.50;;;15.80;89.00;;;;;;5013078;28;20018;-77
2021/08/26 05:27:44;;;;;;;0.60;0.60;;;15.80;88.80;;;;;;5013100;28;20378;-77
2021/08/26 05:30:09;;;;;;;0.40;0.32;;;15.90;88.70;;;;;;5012655;28;20105;-77
2021/08/26 05:32:35;;;;;;;1.33;0.60;;;15.90;88.60;;;;;;5013038;28;20018;-77
2021/08/26 05:35:01;;;;;;;0.77;0.50;;;15.90;88.50;;;;;;5013069;28;20382;-76
2021/08/26 05:37:26;;;;;;;0.75;0.45;;;16.00;88.50;;;;;;5012896;28;20393;-78
2021/08/26 05:39:52;;;;;;;0.70;0.52;;;15.90;88.60;;;;;;5013076;28;20041;-85
2021/08/26 05:42:17;;;;;;;1.60;0.52;;;15.90;88.60;;;;;;5011633;28;20018;-77
2021/08/26 05:44:43;;;;;;;1.08;0.52;;;15.90;88.60;;;;;;5012568;28;20537;-75
2021/08/26 05:47:08;;;;;;;2.38;0.57;;;16.00;88.60;;;;;;5012888;28;20026;-75
2021/08/26 05:49:34;;;;;;;0.52;0.43;;;16.10;88.50;;;;;;5029482;28;20046;-75
2021/08/26 05:51:59;;;;;;;0.60;0.55;;;16.10;88.50;;;;;;5032679;28;20075;-75
2021/08/26 05:54:25;;;;;;;0.73;0.60;;;16.10;88.50;;;;;;5032932;28;20036;-75
2021/08/26 05:56:51;;;;;;;0.80;0.47;;;16.10;88.50;;;;;;5036201;28;20017;-75
2021/08/26 05:59:16;;;;;;;0.52;0.32;;;16.10;88.50;;;;;;5035647;28;20045;-75
2021/08/26 06:01:42;;;;;;;0.40;0.40;;;16.10;88.40;;;;;;5036121;28;20108;-76
2021/08/26 06:04:08;;;;;;;1.13;0.32;;;16.20;88.40;;;;;;5035935;28;20067;-75
2021/08/26 06:06:33;;;;;;;1.35;0.38;;;16.20;88.40;;;;;;5035970;28;20417;-76
2021/08/26 06:08:59;;;;;;;0.28;0.28;;;16.20;88.30;;;;;;5018263;28;20026;-76
2021/08/26 06:11:24;;;;;;;1.10;0.30;;;16.20;88.30;;;;;;5035894;28;20025;-76
2021/08/26 06:13:50;;;;;;;0.45;0.45;;;16.20;88.30;;;;;;5035368;28;20489;-75
2021/08/26 06:16:15;;;;;;;0.57;0.20;;;16.30;88.40;;;;;;5035724;28;20049;-76
2021/08/26 06:18:41;;;;;;;1.10;0.40;;;16.30;88.30;;;;;;5035626;28;20021;-76
2021/08/26 06:21:09;;;;;;;0.65;0.40;;;16.40;88.20;;;;;;5035673;28;20033;-76
2021/08/26 06:23:34;;;;;;;0.43;0.43;;;16.40;88.10;;;;;;5018016;28;20462;-76
2021/08/26 06:26:00;;;;;;;0.40;0.40;;;16.50;88.10;;;;;;5035719;28;20033;-76
2021/08/26 06:28:25;;;;;;;0.17;0.15;;;16.40;88.20;;;;;;5035073;28;20586;-77
2021/08/26 06:30:51;;;;;;;0.50;0.30;;;16.40;88.20;;;;;;5035429;28;20053;-77
2021/08/26 06:33:16;;;;;;;0.30;0.30;;;16.40;88.20;;;;;;5035466;28;20041;-77
2021/08/26 06:35:42;;;;;;;0.50;0.40;;;16.40;88.20;;;;;;5035430;28;20021;-77
2021/08/26 06:38:07;;;;;;;1.00;0.52;;;16.40;88.30;;;;;;5035301;28;20021;-76
2021/08/26 06:40:33;;;;;;;1.05;0.57;;;16.40;88.40;;;;;;5035251;28;20036;-77
2021/08/26 06:42:58;;;;;;;0.47;0.30;;;16.50;88.40;;;;;;5034870;28;20024;-75
2021/08/26 06:45:24;;;;;;;1.17;0.60;;;16.50;88.10;;;;;;5035376;28;20029;-78
2021/08/26 06:47:49;;;;;;;0.77;0.38;;;16.60;88.10;;;;;;5034793;28;20064;-78
2021/08/26 06:50:15;;;;;;;0.73;0.40;;;16.60;87.90;;;;;;5035272;28;20565;-79
2021/08/26 06:52:40;;;;;;;0.17;0.17;;;16.70;88.00;;;;;;5035087;28;20033;-77
2021/08/26 06:55:06;;;;;;;0.28;0.28;;;16.70;88.50;;;;;;5035056;28;20021;-75
2021/08/26 06:57:32;;;;;;;0.20;0.20;;;16.80;87.80;;;;;;5034531;28;20025;-77
2021/08/26 06:59:58;;;;;;;0.85;0.40;;;16.90;87.70;;;;;;5034994;28;20053;-78
2021/08/26 07:02:23;;;;;;;1.60;0.60;;;16.80;87.80;;;;;;5034639;28;20385;-76
2021/08/26 07:04:49;;;;;;;1.15;0.60;;;16.60;88.10;;;;;;5034862;28;20062;-76
2021/08/26 07:07:14;;;;;;;0.52;0.40;;;16.50;88.60;;;;;;5034586;28;20025;-79
2021/08/26 07:09:40;;;;;;;1.70;0.77;;;16.40;89.00;;;;;;5017032;28;20026;-78
2021/08/26 07:12:05;;;;;;;2.45;0.50;;;16.30;88.90;;;;;;5034161;28;20022;-78
2021/08/26 07:14:31;;;;;;;1.00;0.50;;;16.50;88.70;;;;;;5034653;28;20067;-78
2021/08/26 07:16:56;;;;;;;1.35;0.40;;;16.60;88.30;;;;;;5017151;28;20053;-74
2021/08/26 07:19:22;;;;;;;0.85;0.60;;;16.70;88.00;;;;;;5034447;28;20493;-80
2021/08/26 07:21:48;;;;;;;2.38;0.75;;;16.70;87.90;;;;;;5034594;28;20072;-77
2021/08/26 07:24:14;;;;;;;0.60;0.55;;;16.70;87.90;;;;;;5034526;28;20021;-77
2021/08/26 07:26:40;;;;;;;0.40;0.30;;;16.60;88.10;;;;;;5033822;28;20060;-78
2021/08/26 07:29:06;;;;;;;0.30;0.30;;;16.70;88.20;;;;;;5034433;28;20519;-77
2021/08/26 07:31:31;;;;;;;2.55;0.85;;;16.80;88.10;;;;;;5034497;28;20048;-75
2021/08/26 07:33:57;;;;;;;1.08;0.70;;;16.80;87.60;;;;;;5034307;28;20104;-75
2021/08/26 07:36:22;;;;;;;0.43;0.43;;;16.90;87.70;;;;;;5034239;28;20360;-76
2021/08/26 07:38:48;;;;;;;0.55;0.50;;;16.90;87.70;;;;;;5034155;28;20025;-75
2021/08/26 07:41:14;;;;;;;0.40;0.40;;;16.90;87.70;;;;;;5015927;28;20105;-76
2021/08/26 07:43:39;;;;;;;0.63;0.60;;;16.70;88.00;;;;;;5016256;28;20014;-75
2021/08/26 07:46:05;;;;;;;0.80;0.40;;;16.40;88.80;;;;;;5034091;28;20022;-75
2021/08/26 07:48:31;;;;;;;1.05;0.60;;;16.20;89.70;;;;;;5033815;28;20443;-74
2021/08/26 07:51:02;;;;;;;0.40;0.30;;;16.00;90.00;;;;;;5034020;28;20482;-75
2021/08/26 07:53:29;;;;;;;0.77;0.30;;;15.90;90.10;;;;;;5034030;28;20022;-75
2021/08/26 07:55:54;;;;;;;1.17;0.75;;;16.00;90.10;;;;;;5033306;28;20040;-76
2021/08/26 07:58:20;;;;;;;0.52;0.45;;;16.00;90.00;;;;;;5033935;28;20018;-76
2021/08/26 08:00:45;;;;;;;1.00;0.73;;;16.10;90.00;;;;;;5033822;28;20609;-75
2021/08/26 08:03:11;;;;;;;0.70;0.40;;;16.20;89.50;;;;;;5033677;28;20390;-76
2021/08/26 08:05:36;;;;;;;0.47;0.45;;;16.30;89.30;;;;;;5033846;28;20037;-77
2021/08/26 08:08:02;;;;;;;0.30;0.30;;;16.40;89.10;;;;;;5033626;28;20071;-76
2021/08/26 08:10:27;;;;;;;0.50;0.30;;;16.50;88.80;;;;;;5033159;28;20037;-77
2021/08/26 08:12:53;;;;;;;0.30;0.22;;;16.70;88.60;;;;;;5033629;28;20097;-77
2021/08/26 08:15:18;;;;;;;0.60;0.40;;;16.70;88.30;;;;;;5033549;28;20048;-77
2021/08/26 08:17:44;;;;;;;0.93;0.50;;;17.00;88.20;;;;;;5032723;28;20024;-74
2021/08/26 08:20:10;;;;;;;1.05;0.50;;;17.10;87.90;;;;;;5033324;28;20474;-76
2021/08/26 08:22:36;;;;;;;0.30;0.30;;;17.10;87.70;;;;;;5033409;28;20025;-76
2021/08/26 08:25:02;;;;;;;0.43;0.43;;;17.10;88.50;;;;;;5032820;28;20544;-74
2021/08/26 08:27:28;;;;;;;0.65;0.17;;;17.30;87.90;;;;;;5033433;28;20037;-76
2021/08/26 08:29:53;;;;;;;0.40;0.30;;;17.30;87.90;;;;;;5033284;28;20021;-77
2021/08/26 08:32:19;;;;;;;1.20;0.68;;;17.40;87.80;;;;;;5033299;28;20049;-78
2021/08/26 08:34:44;;;;;;;1.15;0.63;;;17.30;87.80;;;;;;5033443;28;20151;-76
2021/08/26 08:37:10;;;;;;;0.43;0.40;;;17.30;88.00;;;;;;5033359;28;20470;-78
2021/08/26 08:39:35;;;;;;;0.50;0.20;;;17.30;87.90;;;;;;5032535;28;20065;-77
2021/08/26 08:42:01;;;;;;;0.43;0.43;;;17.30;87.70;;;;;;5033275;28;20025;-76
2021/08/26 08:44:26;;;;;;;1.00;0.57;;;17.40;87.60;;;;;;5033360;28;20490;-75
2021/08/26 08:46:59;;;;;;;3.60;0.90;;;17.50;87.60;;;;;;5033277;28;20028;-78
2021/08/26 08:49:26;;;;;;;0.57;0.40;;;17.60;87.30;;;;;;5033072;28;20056;-78
2021/08/26 08:51:53;;;;;;;0.57;0.40;;;17.60;87.40;;;;;;5015417;28;20013;-82
2021/08/26 08:54:19;;;;;;;0.90;0.32;;;17.70;87.40;;;;;;5032712;28;20021;-79
2021/08/26 08:56:45;;;;;;;0.63;0.30;;;17.70;87.40;;;;;;5033284;28;20569;-77
2021/08/26 08:59:10;;;;;;;0.22;0.20;;;17.80;87.30;;;;;;5033139;28;20029;-76
2021/08/26 09:01:36;;;;;;;0.55;0.30;;;18.00;87.20;;;;;;5033078;28;20466;-75
2021/08/26 09:04:02;;;;;;;0.35;0.30;;;18.10;87.00;;;;;;5033058;28;20490;-75
2021/08/26 09:06:42;;;;;;;1.05;0.50;;;18.20;86.80;;;;;;5032938;28;20021;-76
2021/08/26 09:09:09;;;;;;;1.00;0.57;;;18.30;86.70;;;;;;5014960;28;20017;-76
2021/08/26 09:11:35;;;;;;;0.28;0.28;;;18.40;86.70;;;;;;5033022;28;20022;-78
2021/08/26 09:14:11;;;;;;;0.70;0.52;;;18.40;86.60;;;;;;5032927;28;20033;-81
2021/08/26 09:16:44;;;;;;;0.98;0.55;;;18.40;86.50;;;;;;5032890;28;20064;-74
2021/08/26 09:19:17;;;;;;;0.45;0.40;;;18.30;86.90;;;;;;5032838;28;20021;-78
2021/08/26 09:21:43;;;;;;;0.50;0.50;;;18.10;87.20;;;;;;5032997;28;20033;-80
2021/08/26 09:24:09;;;;;;;1.10;0.93;;;18.00;87.60;;;;;;5032352;28;20026;-77
2021/08/26 09:26:34;;;;;;;0.15;0.15;;;18.00;87.70;;;;;;5032814;28;20151;-78
2021/08/26 09:29:02;;;;;;;0.93;0.60;;;18.00;87.70;;;;;;5034158;28;20419;-76
2021/08/26 09:31:29;;;;;;;0.30;0.20;;;18.10;87.50;;;;;;5036567;28;20091;-77
2021/08/26 09:34:00;;;;;;;0.82;0.50;;;18.20;87.40;;;;;;5036476;28;20056;-78
2021/08/26 09:36:27;;;;;;;1.33;0.40;;;18.30;87.10;;;;;;5036240;28;20091;-78
2021/08/26 09:38:58;;;;;;;0.32;0.30;;;18.20;87.00;;;;;;5036533;28;20025;-77
2021/08/26 09:41:38;;;;;;;0.30;0.30;;;18.20;87.10;;;;;;5036479;28;20026;-76
2021/08/26 09:44:05;;;;;;;0.57;0.40;;;18.10;87.30;;;;;;5036288;28;20029;-78
2021/08/26 09:46:31;;;;;;;0.40;0.40;;;18.00;87.70;;;;;;5036252;28;20091;-77
2021/08/26 09:49:07;;;;;;;0.65;0.47;;;17.90;87.80;;;;;;5036254;28;20099;-79
2021/08/26 09:51:33;;;;;;;0.60;0.50;;;17.80;88.00;;;;;;5035779;28;20026;-76
2021/08/26 09:54:00;;;;;;;1.10;0.85;;;17.70;88.30;;;;;;5036155;28;20014;-77
2021/08/26 09:56:38;;;;;;;0.40;0.40;;;17.60;88.50;;;;;;5036202;28;20025;-78
2021/08/26 09:59:05;;;;;;;1.45;0.68;;;17.60;88.50;;;;;;5036199;28;20026;-79
2021/08/26 10:01:31;;;;;;;0.50;0.50;;;17.70;88.20;;;;;;5018432;28;20056;-79
2021/08/26 10:03:57;;;;;;;0.88;0.40;;;17.70;87.90;;;;;;5036029;28;20024;-78
2021/08/26 10:06:24;;;;;;;0.77;0.47;;;17.80;87.90;;;;;;5035589;28;20522;-76
2021/08/26 10:08:49;;;;;;;0.50;0.40;;;17.90;87.70;;;;;;5018122;28;20079;-77
2021/08/26 10:11:20;;;;;;;0.60;0.57;;;18.00;87.60;;;;;;5036000;28;20054;-76
2021/08/26 10:13:47;;;;;;;0.68;0.50;;;18.20;87.30;;;;;;5036149;28;20033;-77
2021/08/26 10:16:13;;;;;;;2.17;0.60;;;18.30;86.90;;;;;;5036044;28;20025;-77
2021/08/26 10:18:39;;;;;;;0.70;0.70;;;18.50;86.80;;;;;;5035663;28;20406;-77
2021/08/26 10:21:08;;;;;;;0.80;0.43;;;18.50;86.70;;;;;;5035303;28;20490;-78
2021/08/26 10:23:38;;;;;;;1.65;1.00;;;18.50;86.70;;;;;;5035628;28;20018;-74
2021/08/26 10:26:07;;;;;;;1.17;0.82;;;18.50;86.40;;;;;;5035685;28;20513;-80
2021/08/26 10:28:35;;;;;;;1.05;0.90;;;18.50;86.70;;;;;;5035654;28;20030;-80
2021/08/26 10:31:31;;;;;;;2.90;1.38;;;18.50;86.90;;;;;;5035644;28;20053;-77
2021/08/26 10:34:19;;;;;;;1.15;0.80;;;18.60;86.40;;;;;;5035611;28;20087;-78
2021/08/26 10:36:46;;;;;;;1.02;0.55;;;18.70;86.10;;;;;;5035468;28;20075;-80
2021/08/26 10:39:36;;;;;;;0.98;0.40;;;18.80;86.30;;;;;;5035502;28;20072;-83
2021/08/26 10:42:16;;;;;;;0.60;0.52;;;19.00;85.90;;;;;;5035008;28;20072;-78
2021/08/26 10:45:09;;;;;;;0.55;0.50;;;19.20;85.60;;;;;;5035223;28;20062;-81
2021/08/26 10:47:47;;;;;;;0.75;0.60;;;19.20;85.20;;;;;;5035306;28;20101;-80
2021/08/26 10:50:24;;;;;;;0.40;0.40;;;19.20;85.50;;;;;;5034989;28;20036;-83
2021/08/26 10:53:10;;;;;;;0.30;0.30;;;19.20;85.50;;;;;;5035072;28;20374;-81
2021/08/26 10:55:43;;;;;;;0.38;0.35;;;19.30;85.80;;;;;;5035142;28;20187;-84
2021/08/26 10:58:28;;;;;;;0.68;0.43;;;19.50;85.60;;;;;;5035236;28;20025;-86
2021/08/26 11:01:00;;;;;;;0.73;0.50;;;19.60;85.20;;;;;;5034968;28;20573;-81
2021/08/26 11:03:35;;;;;;;0.80;0.80;;;19.60;85.20;;;;;;5034656;28;20026;-78
2021/08/26 11:06:19;;;;;;;1.90;1.58;;;19.70;85.00;;;;;;5035016;28;20029;-77
2021/08/26 11:08:47;;;;;;;1.63;1.02;;;19.70;84.80;;;;;;5034871;28;20018;-74
2021/08/26 11:11:27;;;;;;;0.63;0.63;;;19.60;85.30;;;;;;5034933;28;20030;-82
2021/08/26 11:13:54;;;;;;;1.77;0.85;;;19.60;85.10;;;;;;5034779;28;20096;-81
2021/08/26 11:16:25;;;;;;;0.50;0.50;;;19.60;85.30;;;;;;5034518;28;20079;-80
2021/08/26 11:18:52;;;;;;;1.23;0.70;;;19.80;85.30;;;;;;5034040;28;20022;-79
2021/08/26 11:21:52;;;;;;;1.20;0.73;;;20.00;84.70;;;;;;5034971;28;20493;-80
2021/08/26 11:24:19;;;;;;;0.70;0.60;;;20.00;84.60;;;;;;5034379;28;20021;-77
2021/08/26 11:26:49;;;;;;;0.80;0.80;;;20.00;84.60;;;;;;5034888;28;20139;-78
2021/08/26 11:29:17;;;;;;;2.88;1.10;;;19.90;84.80;;;;;;5016658;28;20083;-78
2021/08/26 11:32:04;;;;;;;0.70;0.70;;;19.80;84.70;;;;;;5034468;28;20025;-79
2021/08/26 11:34:37;;;;;;;1.80;0.70;;;19.70;85.30;;;;;;5033818;28;20434;-78
2021/08/26 11:37:04;;;;;;;2.15;0.63;;;19.80;85.30;;;;;;5034387;28;20080;-83
2021/08/26 11:39:33;;;;;;;2.97;1.20;;;19.80;84.90;;;;;;5034589;28;20073;-82
2021/08/26 11:41:59;;;;;;;0.70;0.70;;;19.90;84.70;;;;;;5034388;28;20017;-83
2021/08/26 11:44:28;;;;;;;0.70;0.70;;;20.00;84.50;;;;;;5017030;28;20378;-83
2021/08/26 11:46:55;;;;;;;0.60;0.60;;;20.10;84.20;;;;;;5034350;28;20018;-89
2021/08/26 11:49:38;;;;;;;1.10;0.80;;;20.10;84.00;;;;;;5017197;28;20187;-81
2021/08/26 11:52:11;;;;;;;1.25;0.90;;;20.20;84.00;;;;;;5015880;28;20028;-79
2021/08/26 11:54:45;;;;;;;0.60;0.60;;;20.10;83.80;;;;;;5034378;28;20624;-85
2021/08/26 11:57:13;;;;;;;1.63;1.00;;;20.10;84.10;;;;;;5034309;28;20530;-82
2021/08/26 11:59:40;;;;;;;0.70;0.70;;;20.20;83.90;;;;;;5034123;28;20068;-85
2021/08/26 12:02:15;;;;;;;0.50;0.50;;;20.10;84.00;;;;;;5016298;28;20022;-80
2021/08/26 12:04:42;;;;;;;0.60;0.60;;;20.20;84.10;;;;;;5033743;28;20073;-83
2021/08/26 12:07:07;;;;;;;0.95;0.75;;;20.20;84.10;;;;;;5033968;28;20022;-78
2021/08/26 12:09:33;;;;;;;1.42;0.80;;;20.70;83.50;;;;;;5034102;28;20036;-85
2021/08/26 12:12:11;;;;;;;1.70;1.20;;;20.90;82.70;;;;;;5016132;28;20355;-82
2021/08/26 12:14:37;;;;;;;1.20;0.80;;;20.80;82.60;;;;;;5033565;28;20141;-83
2021/08/26 12:17:17;;;;;;;0.73;0.52;;;20.70;83.30;;;;;;5033183;28;20141;-81
2021/08/26 12:19:45;;;;;;;0.60;0.60;;;20.60;83.50;;;;;;5033603;28;20390;-83
2021/08/26 12:22:16;;;;;;;1.20;0.63;;;20.60;83.80;;;;;;5033803;28;20022;-83
2021/08/26 12:24:49;;;;;;;0.65;0.57;;;20.60;83.70;;;;;;5033552;28;20094;-83
2021/08/26 12:27:14;;;;;;;0.93;0.70;;;20.60;83.70;;;;;;5033501;28;20485;-79
2021/08/26 12:29:42;;;;;;;0.90;0.57;;;20.60;83.70;;;;;;5033384;28;20025;-81
2021/08/26 12:32:24;;;;;;;1.05;0.95;;;20.60;83.90;;;;;;5033157;28;20386;-81
2021/08/26 12:34:49;;;;;;;1.25;0.60;;;20.60;84.00;;;;;;5033443;28;20033;-80
2021/08/26 12:37:15;;;;;;;0.77;0.52;;;20.70;83.90;;;;;;5033406;28;20024;-76
2021/08/26 12:39:40;;;;;;;1.10;0.63;;;21.10;83.40;;;;;;5033037;28;20040;-81
2021/08/26 12:42:19;;;;;;;1.05;0.70;;;21.90;82.50;;;;;;5015794;28;20044;-77
2021/08/26 12:44:46;;;;;;;1.63;0.90;;;22.70;80.90;;;;;;5033421;28;20036;-77
2021/08/26 12:47:25;;;;;;;2.13;1.38;;;23.00;80.10;;;;;;5032813;28;20021;-83
2021/08/26 12:49:52;;;;;;;2.05;0.82;;;23.20;80.30;;;;;;5033100;28;20396;-79
2021/08/26 12:52:33;;;;;;;1.13;0.45;;;23.20;80.30;;;;;;5015372;28;20478;-80
2021/08/26 12:54:58;;;;;;;1.63;0.80;;;23.10;80.60;;;;;;5033210;28;20029;-81
2021/08/26 12:57:24;;;;;;;1.33;0.65;;;23.00;81.10;;;;;;5033243;28;20360;-81